Tallmadge, Ohio
Current Conditions -  °F | °C
As of 6:54 PM on Friday 24 Oct 2014 (Local Time) from KAKR Reporting Station
Clear Clear  
Wind Chill: 55°   Ceiling: Unl
Heat Index: 55°   Visibility: 10mi
Dew Point: 39°   Wind: 3mph
Humidity: 55%   Direction: 230°SW
Pressure: 29.99"   Gusts: NA
Location:  41.1°N, 81.44°W
Report Text: KAKR 242254Z AUTO 23003KT 10SM CLR 13/04 A2999 RMK AO2 SLP161 T01280039
Loading
Personal Weather Stations






























Interactive Weather Map
Tropical Storm Tracking
New forecast layout! Learn more

10-Day Weather Forecast

Advertisements
Track Severe Weather on mobile